NCAR-RAP Real-Time Weather Data

Output produced by METARs form (10 April 2020  06:22 UTC)
found at http://weather.rap.ucar.edu/surface/
 
KATT 100551Z AUTO 00000KT 10SM FEW120 19/17 A2995 RMK AO2 SLP131 60003 T01890167 10211 20189 403390189 50006
KATT 100451Z AUTO 00000KT 10SM FEW120 19/17 A2997 RMK AO2 SLP136 T01890167
KATT 100351Z AUTO 30003KT 10SM FEW120 19/17 A2997 RMK AO2 SLP138 T01890167
KATT 100251Z AUTO 05004KT 10SM SCT110 19/16 A2994 RMK AO2 RAB0155E36 SLP128 P0003 60003 T01940161 50020
KATT 100151Z AUTO VRB03KT 10SM OVC090 20/17 A2995 RMK AO2 RAB07E29 PRESRR SLP133 P0000 T02000172
KATT 100051Z AUTO 00000KT 10SM BKN090 OVC110 21/17 A2989 RMK AO2 RAE01 SLP110 P0000 T02060167
KATT 092351Z AUTO 01007KT 350V060 10SM -RA FEW033 OVC085 21/17 A2988 RMK AO2 RAB36 SLP108 P0002 60016 T02110172 10339 20200 53001
KATT 092251Z AUTO 03007KT 10SM CLR 22/16 A2985 RMK AO2 SLP098 T02220161
KATT 092151Z AUTO 02005KT 10SM FEW019 BKN110 21/18 A2986 RMK AO2 RAE38 TSB2053E29 SLP102 P0003 T02110178
KATT 092133Z AUTO VRB06KT 10SM -RA SCT026 SCT044 BKN070 22/18 A2986 RMK AO2 TSB2053E29 P0003 T02170183
KATT 092059Z AUTO 01012G28KT 9SM -TSRA FEW046 SCT070 OVC095 20/17 A2988 RMK AO2 TSB53 P0000 T02000172
KATT 092051Z AUTO 36013G28KT 2 1/2SM TSRA SCT040 BKN065 OVC090 21/18 A2987 RMK AO2 PK WND 35033/2015 RAB13 TSB18E33B34B37 SLP107 P0011 60011 T02060178 53004
KATT 092043Z AUTO 34011G20KT 2SM TSRA BR FEW038 BKN055 OVC095 21/18 A2987 RMK AO2 PK WND 35033/2015 RAB13 TSB18E33B34B37 P0006 T02060183
KATT 092024Z AUTO 34009G33KT 7SM TSRA SCT035 BKN060 OVC110 21/18 A2988 RMK AO2 PK WND 35033/2015 RAB13 TSB18 PRESRR P0000 T02110178
KATT 091951Z AUTO 00000KT 10SM SCT120 31/21 A2982 RMK AO2 SLP085 T03060211
KATT 091851Z AUTO 00000KT 10SM CLR 34/23 A2982 RMK AO2 SLP084 T03390228
KATT 091751Z AUTO 00000KT 10SM CLR 32/23 A2986 RMK AO2 SLP098 T03220228 10322 20228 58013
KATT 091651Z AUTO VRB03KT 9SM CLR 30/23 A2990 RMK AO2 SLP112 T03000228
KATT 091551Z AUTO 00000KT 8SM CLR 27/22 A2990 RMK AO2 SLP112 T02720222
KATT 091451Z AUTO 00000KT 6SM HZ CLR 26/22 A2990 RMK AO2 SLP112 T02560222 51010
KATT 091351Z AUTO 00000KT 5SM HZ CLR 24/22 A2989 RMK AO2 SLP109 T02440217
KATT 091251Z AUTO 00000KT 3SM BR CLR 23/21 A2988 RMK AO2 SLP107 T02330211
KATT 091151Z AUTO 00000KT 4SM BR CLR 23/21 A2987 RMK AO2 SLP102 T02330211 10256 20233 53001
KATT 091051Z AUTO 00000KT 5SM BR CLR 23/21 A2987 RMK AO2 SLP100 T02330211
KATT 090951Z AUTO 00000KT 4SM BR CLR 24/22 A2987 RMK AO2 SLP099 T02390217
KATT 090851Z AUTO 00000KT 5SM BR CLR 24/22 A2987 RMK AO2 SLP098 T02390217 58012
KATT 090751Z AUTO 00000KT 6SM HZ CLR 24/22 A2988 RMK AO2 SLP104 T02440217